createdAt,value
2022-07-27T01:03:29.773Z,18.50
2022-07-27T01:04:01.758Z,18.30
2022-07-27T01:04:36.711Z,18.30
2022-07-27T01:05:08.984Z,18.30
2022-07-27T01:05:42.962Z,18.20
2022-07-27T01:06:16.009Z,18.90
2022-07-27T01:06:48.412Z,19.00
2022-07-27T01:07:21.466Z,18.10
2022-07-27T01:07:53.404Z,18.20
2022-07-27T01:08:25.943Z,18.10
2022-07-27T01:09:16.871Z,18.10
2022-07-27T01:09:58.215Z,18.10
2022-07-27T01:10:30.563Z,18.10
2022-07-27T01:11:02.990Z,18.10
2022-07-27T01:11:34.825Z,18.10
2022-07-27T01:12:09.563Z,18.10
2022-07-27T01:12:41.435Z,18.10
2022-07-27T01:13:16.107Z,18.00
2022-07-27T01:13:48.189Z,18.00
2022-07-27T01:14:20.558Z,18.00
2022-07-27T01:15:00.505Z,18.00
2022-07-27T01:15:35.309Z,18.00
2022-07-27T01:16:09.074Z,18.00
2022-07-27T01:16:41.809Z,18.00
2022-07-27T01:17:13.860Z,18.00
2022-07-27T01:17:45.762Z,18.00
2022-07-27T01:18:39.646Z,18.00
2022-07-27T01:19:13.735Z,18.00
2022-07-27T01:19:46.110Z,18.00
2022-07-27T01:20:17.888Z,18.00
2022-07-27T01:20:49.679Z,18.00
2022-07-27T01:21:21.508Z,17.90
2022-07-27T01:21:53.263Z,17.90
2022-07-27T01:22:25.398Z,17.90
2022-07-27T01:22:57.264Z,17.90
2022-07-27T01:23:32.330Z,17.90
2022-07-27T01:24:05.274Z,17.90
2022-07-27T01:24:37.413Z,17.90
2022-07-27T01:25:10.515Z,17.90
2022-07-27T01:25:42.643Z,17.90
2022-07-27T01:26:14.467Z,17.90
2022-07-27T01:26:46.938Z,17.90
2022-07-27T01:27:18.703Z,17.90
2022-07-27T01:27:50.478Z,17.90
2022-07-27T01:28:22.381Z,17.90
2022-07-27T01:28:59.014Z,17.90
2022-07-27T01:29:32.250Z,18.40
2022-07-27T01:30:24.774Z,17.90
2022-07-27T01:30:56.772Z,17.90
2022-07-27T01:31:29.306Z,17.80
2022-07-27T01:32:02.258Z,17.80
2022-07-27T01:32:34.015Z,17.80
2022-07-27T01:33:08.730Z,17.80
2022-07-27T01:33:40.477Z,17.80
2022-07-27T01:34:12.329Z,17.70
2022-07-27T01:34:44.192Z,17.80
2022-07-27T01:35:15.992Z,17.80
2022-07-27T01:35:47.759Z,17.80
2022-07-27T01:36:20.036Z,17.80
2022-07-27T01:36:51.863Z,17.80
2022-07-27T01:37:23.664Z,17.70
2022-07-27T01:37:55.890Z,17.70
2022-07-27T01:38:27.709Z,17.70
2022-07-27T01:38:59.486Z,17.70
2022-07-27T01:39:32.652Z,17.70
2022-07-27T01:40:04.884Z,17.70
2022-07-27T01:40:37.534Z,17.70
2022-07-27T01:41:09.476Z,17.70
2022-07-27T01:41:41.416Z,17.60
2022-07-27T01:42:13.196Z,17.60
2022-07-27T01:42:44.987Z,17.70
2022-07-27T01:43:17.172Z,17.70
2022-07-27T01:43:49.046Z,17.60
2022-07-27T01:44:20.957Z,17.60
2022-07-27T01:44:52.779Z,17.60
2022-07-27T01:45:24.770Z,17.60
2022-07-27T01:45:56.611Z,17.60
2022-07-27T01:46:28.561Z,17.60
2022-07-27T01:47:00.493Z,17.60
2022-07-27T01:47:32.271Z,17.60
2022-07-27T01:48:04.295Z,17.60
2022-07-27T01:48:36.201Z,17.60
2022-07-27T01:49:08.473Z,17.60
2022-07-27T01:49:40.516Z,17.60
2022-07-27T01:50:12.386Z,17.60
2022-07-27T01:50:45.456Z,17.60
2022-07-27T01:51:19.635Z,17.50
2022-07-27T01:51:51.703Z,17.60
2022-07-27T01:52:23.492Z,17.50
2022-07-27T01:52:55.252Z,17.50
2022-07-27T01:53:27.080Z,17.60
2022-07-27T01:53:58.934Z,17.50
2022-07-27T01:54:30.740Z,17.50
2022-07-27T01:55:02.605Z,17.40
2022-07-27T01:55:36.984Z,17.50
2022-07-27T01:56:12.553Z,17.50
2022-07-27T01:56:44.495Z,17.40
2022-07-27T01:57:16.284Z,17.50
2022-07-27T01:57:48.111Z,17.50
2022-07-27T01:58:20.077Z,17.50
2022-07-27T01:58:51.860Z,17.40
2022-07-27T01:59:23.649Z,17.50
2022-07-27T01:59:55.492Z,17.40
2022-07-27T02:00:27.315Z,17.40
2022-07-27T02:01:00.355Z,17.80
2022-07-27T02:01:32.312Z,17.40
2022-07-27T02:02:04.218Z,17.40
2022-07-27T02:02:36.143Z,17.40
2022-07-27T02:03:09.657Z,17.40
2022-07-27T02:03:41.490Z,17.50
2022-07-27T02:04:13.269Z,17.40
2022-07-27T02:04:45.197Z,17.30
2022-07-27T02:05:17.120Z,17.30
2022-07-27T02:05:49.053Z,14.80
2022-07-27T02:06:20.935Z,17.40
2022-07-27T02:06:53.491Z,17.40
2022-07-27T02:07:25.413Z,17.30
2022-07-27T02:07:57.597Z,17.30
2022-07-27T02:08:29.445Z,17.30
2022-07-27T02:09:01.342Z,17.30
2022-07-27T02:09:33.110Z,17.30
2022-07-27T02:10:05.385Z,17.30
2022-07-27T02:10:57.847Z,14.90
2022-07-27T02:11:48.198Z,17.60
2022-07-27T02:12:38.656Z,17.30
2022-07-27T02:13:23.002Z,18.40
2022-07-27T02:13:55.035Z,17.20
2022-07-27T02:14:26.942Z,17.30
2022-07-27T02:14:59.970Z,17.20
2022-07-27T02:15:43.007Z,17.20
2022-07-27T02:16:17.772Z,17.20
2022-07-27T02:16:50.656Z,17.20
2022-07-27T02:17:22.780Z,17.20
2022-07-27T02:17:55.911Z,17.20
2022-07-27T02:18:35.969Z,17.20
2022-07-27T02:19:09.121Z,17.10
2022-07-27T02:19:43.139Z,17.20
2022-07-27T02:20:17.577Z,17.10
2022-07-27T02:20:49.469Z,17.50
2022-07-27T02:21:22.677Z,17.10
2022-07-27T02:21:54.846Z,17.10
2022-07-27T02:22:26.643Z,17.10
2022-07-27T02:22:58.521Z,17.10
2022-07-27T02:23:31.482Z,17.10
2022-07-27T02:24:03.375Z,17.10
2022-07-27T02:24:37.729Z,17.10
2022-07-27T02:25:11.398Z,17.10
2022-07-27T02:25:43.582Z,17.10
2022-07-27T02:26:15.377Z,17.10
2022-07-27T02:26:47.290Z,17.00
2022-07-27T02:27:21.434Z,17.10
2022-07-27T02:27:53.290Z,17.10
2022-07-27T02:28:25.301Z,16.10
2022-07-27T02:28:57.087Z,17.00
2022-07-27T02:29:28.910Z,17.10
2022-07-27T02:30:00.985Z,17.10
2022-07-27T02:30:32.985Z,17.00
2022-07-27T02:31:05.311Z,17.00
2022-07-27T02:31:37.115Z,17.00
2022-07-27T02:32:09.139Z,17.00
2022-07-27T02:32:44.221Z,17.10
2022-07-27T02:33:17.189Z,17.10
2022-07-27T02:33:49.103Z,17.00
2022-07-27T02:34:20.860Z,17.10
2022-07-27T02:34:52.726Z,17.00
2022-07-27T02:35:24.542Z,17.20
2022-07-27T02:35:56.387Z,17.00
2022-07-27T02:36:29.324Z,17.00
2022-07-27T02:37:01.311Z,16.90
2022-07-27T02:37:33.278Z,17.40
2022-07-27T02:38:05.099Z,17.00
2022-07-27T02:38:37.139Z,17.10
2022-07-27T02:39:09.149Z,16.90
2022-07-27T02:39:41.200Z,17.00
2022-07-27T02:40:13.266Z,16.90
2022-07-27T02:40:45.186Z,16.90
2022-07-27T02:41:16.985Z,16.90
2022-07-27T02:41:49.266Z,16.90
2022-07-27T02:42:21.227Z,16.90
2022-07-27T02:42:53.030Z,16.90
2022-07-27T02:43:24.884Z,16.90
2022-07-27T02:43:56.717Z,16.90
2022-07-27T02:44:28.652Z,16.90
2022-07-27T02:45:00.424Z,16.90
2022-07-27T02:45:32.215Z,16.90
2022-07-27T02:46:04.783Z,16.90
2022-07-27T02:46:36.714Z,16.80
2022-07-27T02:47:08.566Z,16.80
2022-07-27T02:47:40.579Z,16.40
2022-07-27T02:48:12.375Z,16.80
2022-07-27T02:48:44.307Z,16.80
2022-07-27T02:49:16.540Z,16.80
2022-07-27T02:49:50.917Z,16.80
2022-07-27T02:50:22.734Z,16.80
2022-07-27T02:50:54.594Z,16.80
2022-07-27T02:51:26.377Z,16.80
2022-07-27T02:51:58.302Z,16.80
2022-07-27T02:52:30.231Z,16.80
2022-07-27T02:53:02.122Z,16.70
2022-07-27T02:53:33.888Z,16.70
2022-07-27T02:54:05.796Z,16.70
2022-07-27T02:54:37.574Z,16.70
2022-07-27T02:55:10.277Z,16.70
2022-07-27T02:55:42.067Z,16.70
2022-07-27T02:56:13.900Z,16.70
2022-07-27T02:56:46.123Z,16.70
2022-07-27T02:57:18.141Z,19.20
2022-07-27T02:57:50.029Z,16.70
2022-07-27T02:58:21.890Z,17.10
2022-07-27T02:58:54.455Z,16.70
2022-07-27T02:59:26.733Z,16.70
2022-07-27T02:59:58.482Z,16.70
2022-07-27T03:00:30.461Z,16.60
2022-07-27T03:01:02.298Z,16.70
2022-07-27T03:01:34.139Z,16.70
2022-07-27T03:02:06.041Z,16.60
2022-07-27T03:02:38.842Z,16.60
2022-07-27T03:03:10.593Z,16.60
2022-07-27T03:03:42.410Z,16.60
2022-07-27T03:04:14.688Z,16.60
2022-07-27T03:04:46.585Z,16.60
2022-07-27T03:05:18.776Z,16.60
2022-07-27T03:05:50.607Z,16.70
2022-07-27T03:06:22.420Z,16.60
2022-07-27T03:06:54.248Z,16.70
2022-07-27T03:07:26.042Z,16.60
2022-07-27T03:07:57.863Z,16.70
2022-07-27T03:08:29.694Z,16.50
2022-07-27T03:09:02.214Z,16.60
2022-07-27T03:09:33.991Z,17.00
2022-07-27T03:10:06.669Z,16.50
2022-07-27T03:10:38.522Z,16.50
2022-07-27T03:11:10.339Z,16.70
2022-07-27T03:11:42.202Z,16.50
2022-07-27T03:12:14.004Z,16.60
2022-07-27T03:12:45.807Z,16.50
2022-07-27T03:13:17.597Z,16.50
2022-07-27T03:13:49.375Z,16.60
2022-07-27T03:14:21.160Z,16.50
2022-07-27T03:14:53.035Z,16.50
2022-07-27T03:15:25.208Z,16.50
2022-07-27T03:15:58.542Z,16.50
2022-07-27T03:16:30.428Z,16.50
2022-07-27T03:17:02.536Z,16.40
2022-07-27T03:17:34.314Z,16.50
2022-07-27T03:18:06.265Z,16.40
2022-07-27T03:18:38.377Z,16.50
2022-07-27T03:19:10.433Z,16.40
2022-07-27T03:19:42.427Z,16.40
2022-07-27T03:20:14.710Z,16.40
2022-07-27T03:20:46.530Z,16.40
2022-07-27T03:21:18.448Z,16.40
2022-07-27T03:21:50.248Z,16.40
2022-07-27T03:22:22.098Z,16.40
2022-07-27T03:22:54.301Z,16.40
2022-07-27T03:23:26.057Z,16.40
2022-07-27T03:23:57.847Z,16.40
2022-07-27T03:24:29.638Z,16.40
2022-07-27T03:25:01.513Z,16.20
2022-07-27T03:25:33.285Z,16.30
2022-07-27T03:26:06.457Z,16.40
2022-07-27T03:26:38.300Z,16.30
2022-07-27T03:27:10.118Z,16.80
2022-07-27T03:27:41.881Z,16.30
2022-07-27T03:28:13.664Z,16.40
2022-07-27T03:28:45.787Z,16.30
2022-07-27T03:29:17.589Z,16.30
2022-07-27T03:29:49.503Z,16.40
2022-07-27T03:30:21.332Z,14.90
2022-07-27T03:30:53.274Z,16.30
2022-07-27T03:31:25.165Z,16.20
2022-07-27T03:31:57.062Z,16.30
2022-07-27T03:32:28.848Z,16.30
2022-07-27T03:33:00.743Z,16.30
2022-07-27T03:33:34.054Z,16.30
2022-07-27T03:34:05.870Z,16.30
2022-07-27T03:34:38.733Z,16.10
2022-07-27T03:35:10.995Z,17.00
2022-07-27T03:35:42.791Z,16.30
2022-07-27T03:36:14.690Z,16.30
2022-07-27T03:36:46.608Z,16.30
2022-07-27T03:37:19.959Z,16.70
2022-07-27T03:37:52.496Z,16.40
2022-07-27T03:38:24.275Z,16.20
2022-07-27T03:38:56.083Z,16.30
2022-07-27T03:39:27.964Z,16.20
2022-07-27T03:39:59.790Z,16.20
2022-07-27T03:40:34.582Z,16.20
2022-07-27T03:41:06.867Z,16.20
2022-07-27T03:41:38.737Z,16.20
2022-07-27T03:42:12.470Z,16.20
2022-07-27T03:42:44.550Z,16.20
2022-07-27T03:43:16.354Z,16.20
2022-07-27T03:43:48.205Z,16.20
2022-07-27T03:44:19.999Z,16.20
2022-07-27T03:44:52.045Z,16.10
2022-07-27T03:45:24.207Z,16.20
2022-07-27T03:45:56.020Z,16.20
2022-07-27T03:46:27.938Z,16.10
2022-07-27T03:46:59.804Z,16.10
2022-07-27T03:47:31.762Z,16.10
2022-07-27T03:48:03.848Z,16.60
2022-07-27T03:48:35.794Z,16.10
2022-07-27T03:49:13.964Z,16.10
2022-07-27T03:49:47.770Z,16.20
2022-07-27T03:50:19.737Z,16.50
2022-07-27T03:50:51.499Z,16.60
2022-07-27T03:51:23.771Z,16.10
2022-07-27T03:51:55.623Z,16.20
2022-07-27T03:52:27.433Z,16.10
2022-07-27T03:52:59.231Z,16.10
2022-07-27T03:53:31.021Z,16.00
2022-07-27T03:54:03.702Z,16.00
2022-07-27T03:54:35.541Z,16.00
2022-07-27T03:55:07.777Z,16.10
2022-07-27T03:55:39.562Z,16.00
2022-07-27T03:56:11.323Z,16.00
2022-07-27T03:56:43.440Z,16.00
2022-07-27T03:57:15.285Z,16.00
2022-07-27T03:57:47.611Z,16.00
2022-07-27T03:58:19.470Z,16.00
2022-07-27T03:58:51.263Z,16.10
2022-07-27T03:59:23.153Z,16.00
2022-07-27T03:59:55.010Z,16.00
2022-07-27T04:00:27.017Z,16.00
2022-07-27T04:00:58.920Z,16.00
2022-07-27T04:01:30.842Z,16.00
2022-07-27T04:02:03.988Z,16.00
2022-07-27T04:02:35.978Z,16.00
2022-07-27T04:03:07.801Z,15.90
2022-07-27T04:03:44.122Z,16.00
2022-07-27T04:04:16.198Z,15.90
2022-07-27T04:04:47.984Z,15.90
2022-07-27T04:05:20.872Z,15.90
2022-07-27T04:05:52.778Z,15.90
2022-07-27T04:06:26.470Z,15.90
2022-07-27T04:06:58.703Z,15.90
2022-07-27T04:07:30.515Z,16.20
2022-07-27T04:08:02.657Z,15.90
2022-07-27T04:08:34.584Z,15.90
2022-07-27T04:09:08.802Z,15.90
2022-07-27T04:09:41.557Z,15.90
2022-07-27T04:10:15.777Z,16.10
2022-07-27T04:10:47.947Z,15.90
2022-07-27T04:11:20.035Z,16.50
2022-07-27T04:11:51.814Z,15.80
2022-07-27T04:12:27.566Z,15.80
2022-07-27T04:13:00.512Z,15.90
2022-07-27T04:13:32.857Z,15.80
2022-07-27T04:14:07.865Z,15.80
2022-07-27T04:14:39.663Z,15.80
2022-07-27T04:15:11.637Z,15.80
2022-07-27T04:15:43.571Z,15.80
2022-07-27T04:16:15.559Z,15.80
2022-07-27T04:16:47.641Z,15.80
2022-07-27T04:17:56.350Z,15.80
2022-07-27T04:18:11.235Z,15.80
2022-07-27T04:18:43.526Z,15.80
2022-07-27T04:19:15.664Z,15.80
2022-07-27T04:19:47.846Z,15.80
2022-07-27T04:20:20.024Z,15.70
2022-07-27T04:20:51.834Z,15.80
2022-07-27T04:21:23.630Z,15.70
2022-07-27T04:21:59.540Z,15.70
2022-07-27T04:22:31.339Z,15.70
2022-07-27T04:23:03.155Z,15.70
2022-07-27T04:23:38.355Z,15.70
2022-07-27T04:24:10.468Z,15.70
2022-07-27T04:24:42.259Z,15.70
2022-07-27T04:25:14.253Z,15.70
2022-07-27T04:25:46.262Z,15.70
2022-07-27T04:26:18.170Z,15.80
2022-07-27T04:26:49.978Z,15.70
2022-07-27T04:27:21.790Z,15.70
2022-07-27T04:27:54.660Z,15.70
2022-07-27T04:28:27.255Z,15.60
2022-07-27T04:28:59.064Z,15.80
2022-07-27T04:29:30.918Z,15.80
2022-07-27T04:30:09.375Z,15.60
2022-07-27T04:30:41.664Z,15.60
2022-07-27T04:31:13.573Z,15.60
2022-07-27T04:31:45.355Z,15.60
2022-07-27T04:32:17.163Z,16.00
2022-07-27T04:32:49.005Z,15.60
2022-07-27T04:33:20.788Z,15.60
2022-07-27T04:33:52.583Z,15.60
2022-07-27T04:34:24.449Z,15.50
2022-07-27T04:34:56.242Z,15.60
2022-07-27T04:35:28.303Z,15.80
2022-07-27T04:36:00.150Z,15.70
2022-07-27T04:36:31.983Z,15.60
2022-07-27T04:37:04.063Z,15.60
2022-07-27T04:37:35.983Z,15.60
2022-07-27T04:38:07.791Z,15.60
2022-07-27T04:38:39.628Z,15.60
2022-07-27T04:39:11.894Z,15.90
2022-07-27T04:39:44.059Z,15.60
2022-07-27T04:40:15.992Z,15.60
2022-07-27T04:40:47.806Z,15.60
2022-07-27T04:41:19.630Z,15.60
2022-07-27T04:41:51.645Z,15.60
2022-07-27T04:42:23.493Z,15.60
2022-07-27T04:42:55.393Z,16.00
2022-07-27T04:43:29.479Z,15.60
2022-07-27T04:44:01.551Z,15.50
2022-07-27T04:44:33.742Z,15.70
2022-07-27T04:45:06.456Z,15.70
2022-07-27T04:45:38.337Z,15.60
2022-07-27T04:46:14.979Z,15.50
2022-07-27T04:46:47.907Z,15.50
2022-07-27T04:47:19.707Z,15.50
2022-07-27T04:47:51.481Z,15.50
2022-07-27T04:48:23.318Z,15.40
2022-07-27T04:48:55.601Z,16.90
2022-07-27T04:49:27.608Z,16.30
2022-07-27T04:49:59.438Z,15.50
2022-07-27T04:50:31.259Z,15.50
2022-07-27T04:51:03.454Z,15.50
2022-07-27T04:51:35.404Z,15.40
2022-07-27T04:52:07.216Z,16.00
2022-07-27T04:52:38.987Z,15.40
2022-07-27T04:53:12.204Z,15.50
2022-07-27T04:53:53.681Z,16.10
2022-07-27T04:54:30.353Z,15.40
2022-07-27T04:55:02.743Z,15.40
2022-07-27T04:55:35.033Z,16.70
2022-07-27T04:56:07.160Z,15.40
2022-07-27T04:57:11.397Z,15.40
2022-07-27T04:57:43.537Z,15.40
2022-07-27T04:58:15.952Z,15.40
2022-07-27T04:58:47.896Z,15.40
2022-07-27T04:59:19.754Z,16.80
2022-07-27T04:59:51.535Z,15.40
2022-07-27T05:00:23.541Z,16.80
2022-07-27T05:00:55.446Z,15.50
2022-07-27T05:01:31.642Z,15.40
2022-07-27T05:02:06.691Z,15.40
2022-07-27T05:02:43.227Z,15.40
2022-07-27T05:03:15.137Z,15.50
2022-07-27T05:03:47.047Z,15.40
2022-07-27T05:04:19.040Z,15.40
2022-07-27T05:04:50.931Z,16.10
2022-07-27T05:05:22.829Z,16.60
2022-07-27T05:05:54.652Z,15.40
2022-07-27T05:06:26.545Z,15.90
2022-07-27T05:06:58.387Z,15.40
2022-07-27T05:07:30.297Z,15.40
2022-07-27T05:08:03.062Z,15.90
2022-07-27T05:08:36.000Z,14.90
2022-07-27T05:09:07.766Z,16.80
2022-07-27T05:09:39.737Z,15.30
2022-07-27T05:10:15.326Z,15.40
2022-07-27T05:10:49.944Z,15.30
2022-07-27T05:11:21.739Z,15.30
2022-07-27T05:11:53.571Z,15.30
2022-07-27T05:12:25.346Z,15.30
2022-07-27T05:12:57.170Z,16.60
2022-07-27T05:13:29.030Z,15.30
2022-07-27T05:14:00.909Z,15.30
2022-07-27T05:14:32.715Z,15.30
2022-07-27T05:15:05.595Z,15.30
2022-07-27T05:15:54.591Z,15.40
2022-07-27T05:16:28.954Z,15.30
2022-07-27T05:17:01.180Z,15.30
2022-07-27T05:17:34.445Z,15.30
2022-07-27T05:18:06.902Z,15.30
2022-07-27T05:18:39.639Z,15.10
2022-07-27T05:19:12.571Z,16.00
2022-07-27T05:19:44.640Z,15.30
2022-07-27T05:20:16.775Z,15.30
2022-07-27T05:20:48.605Z,16.00
2022-07-27T05:21:22.185Z,15.30
2022-07-27T05:21:54.001Z,15.70
2022-07-27T05:22:25.791Z,16.40
2022-07-27T05:24:02.232Z,15.30
2022-07-27T05:25:07.680Z,15.30
2022-07-27T05:25:39.552Z,15.30
2022-07-27T05:26:11.364Z,15.30
2022-07-27T05:26:43.327Z,16.30
2022-07-27T05:27:15.148Z,16.40
2022-07-27T05:27:54.551Z,15.30
2022-07-27T05:28:27.092Z,15.30
2022-07-27T05:28:58.859Z,15.30
2022-07-27T05:29:30.639Z,15.30
2022-07-27T05:30:34.619Z,15.30
2022-07-27T05:31:06.550Z,15.40
2022-07-27T05:32:10.835Z,15.30
2022-07-27T05:32:42.691Z,15.30
2022-07-27T05:35:26.122Z,15.40
2022-07-27T05:35:57.972Z,15.40
2022-07-27T05:36:29.836Z,15.40
2022-07-27T05:37:02.567Z,15.40
2022-07-27T05:39:13.753Z,15.50
2022-07-27T09:15:22.950Z,17.20
2022-07-27T09:17:45.791Z,17.10
2022-07-27T09:17:48.447Z,17.20
2022-07-27T09:18:24.347Z,17.30
2022-07-27T09:19:10.952Z,17.30
2022-07-27T09:19:59.669Z,17.30
2022-07-27T09:20:31.475Z,17.30
2022-07-27T09:21:12.215Z,17.30
2022-07-27T09:21:44.012Z,17.30
2022-07-27T09:22:15.782Z,16.60
2022-07-27T09:22:56.061Z,17.90
2022-07-27T09:23:27.878Z,17.30
2022-07-27T09:23:59.596Z,17.40
2022-07-27T09:24:47.479Z,17.40
2022-07-27T09:25:44.803Z,17.40
2022-07-27T09:26:36.053Z,17.40
2022-07-27T09:27:07.976Z,17.40
2022-07-27T09:27:41.163Z,17.40
2022-07-27T09:28:14.190Z,17.50
2022-07-27T09:28:46.812Z,17.50
2022-07-27T09:29:18.650Z,17.50
2022-07-27T09:30:05.513Z,17.50
2022-07-27T09:30:43.573Z,17.50
2022-07-27T09:31:16.484Z,17.50
2022-07-27T09:31:51.421Z,17.50
2022-07-27T09:32:23.358Z,17.60
2022-07-27T09:33:06.663Z,17.60
2022-07-27T09:33:46.314Z,17.60
2022-07-27T09:34:34.124Z,17.70
2022-07-27T09:35:21.518Z,17.60
2022-07-27T09:35:59.897Z,17.60
2022-07-27T09:36:31.869Z,17.70
2022-07-27T09:37:06.275Z,17.70
2022-07-27T09:37:38.095Z,17.70
2022-07-27T09:38:22.291Z,17.70
2022-07-27T09:39:06.769Z,17.70
2022-07-27T09:39:39.249Z,17.70
2022-07-27T09:40:13.486Z,17.80
2022-07-27T09:40:49.608Z,17.70
2022-07-27T09:41:22.784Z,17.80
2022-07-27T09:42:02.333Z,17.80
2022-07-27T09:43:14.659Z,17.80
2022-07-27T09:44:34.580Z,17.80
2022-07-27T09:45:34.216Z,17.80
2022-07-27T09:46:10.053Z,17.90
2022-07-27T09:46:44.420Z,17.90
2022-07-27T09:47:27.853Z,17.90
2022-07-27T09:48:21.044Z,17.90
2022-07-27T09:48:52.930Z,17.90
2022-07-27T09:49:35.069Z,18.10
2022-07-27T09:50:19.950Z,18.00
2022-07-27T09:51:32.722Z,18.00
2022-07-27T09:52:00.639Z,18.00
2022-07-27T09:52:33.436Z,18.00
2022-07-27T09:53:41.261Z,18.00
2022-07-27T09:54:14.581Z,18.00
2022-07-27T09:54:47.391Z,18.00
2022-07-27T09:55:22.620Z,18.10
2022-07-27T09:56:17.544Z,18.40
2022-07-27T09:57:00.016Z,18.10
2022-07-27T09:57:50.383Z,18.10
2022-07-27T09:58:22.171Z,18.10
2022-07-27T09:58:59.039Z,18.20
2022-07-27T09:59:31.528Z,18.20
2022-07-27T10:00:16.359Z,18.20
2022-07-27T10:00:57.967Z,18.20
2022-07-27T10:01:35.600Z,18.20
2022-07-27T10:02:08.407Z,18.10
2022-07-27T10:02:40.686Z,18.20
2022-07-27T10:03:12.556Z,18.20
2022-07-27T10:03:46.136Z,20.00
2022-07-27T10:04:18.355Z,18.30
2022-07-27T10:04:50.462Z,18.30
2022-07-27T10:05:23.364Z,18.30
2022-07-27T10:05:55.846Z,18.30
2022-07-27T10:06:29.326Z,18.30
2022-07-27T10:07:03.961Z,19.40
2022-07-27T10:07:38.511Z,18.30
2022-07-27T10:08:10.287Z,18.30
2022-07-27T10:08:44.367Z,18.40
2022-07-27T10:09:19.930Z,18.40
2022-07-27T10:09:52.012Z,18.40
2022-07-27T10:10:24.473Z,18.40
2022-07-27T10:10:57.780Z,18.30
2022-07-27T10:11:29.731Z,18.40
2022-07-27T10:12:03.837Z,18.40
2022-07-27T10:12:35.712Z,18.40
2022-07-27T10:13:07.584Z,18.40
2022-07-27T10:13:43.871Z,18.40
2022-07-27T10:14:16.648Z,18.40
2022-07-27T10:14:48.436Z,18.40
2022-07-27T10:15:20.508Z,18.40
2022-07-27T10:15:54.329Z,18.40
2022-07-27T10:16:29.095Z,18.50
2022-07-27T10:17:02.225Z,18.50
2022-07-27T10:17:35.482Z,18.50
2022-07-27T10:18:27.556Z,18.60
2022-07-27T10:19:13.860Z,18.50
2022-07-27T10:19:47.642Z,18.50
2022-07-27T10:20:19.507Z,18.60
2022-07-27T10:20:53.060Z,18.50
2022-07-27T10:21:25.377Z,18.60
2022-07-27T10:21:57.183Z,18.60
2022-07-27T10:22:48.976Z,18.60
2022-07-27T10:23:29.085Z,18.60
2022-07-27T10:24:23.355Z,18.60
2022-07-27T10:25:00.373Z,18.60
2022-07-27T10:25:33.112Z,18.60
2022-07-27T10:26:27.678Z,20.40
2022-07-27T10:27:17.222Z,18.60
2022-07-27T10:28:17.715Z,18.70
2022-07-27T10:29:17.127Z,18.70
2022-07-27T10:29:50.819Z,18.70
2022-07-27T10:30:28.131Z,18.70
2022-07-27T10:31:19.459Z,18.70
2022-07-27T10:31:54.125Z,18.70
2022-07-27T10:32:30.890Z,18.80
2022-07-27T10:33:16.809Z,18.70
2022-07-27T10:33:51.406Z,18.80
2022-07-27T10:34:42.405Z,18.80
2022-07-27T10:35:32.724Z,18.80
2022-07-27T10:36:05.352Z,19.00
2022-07-27T10:36:46.750Z,19.40
2022-07-27T10:37:26.714Z,18.70
2022-07-27T10:38:15.222Z,18.80
2022-07-27T10:38:52.675Z,18.80
2022-07-27T10:39:33.553Z,18.80
2022-07-27T10:40:26.822Z,18.80
2022-07-27T10:41:20.573Z,18.90
2022-07-27T10:41:52.419Z,18.90
2022-07-27T10:42:29.774Z,18.90
2022-07-27T10:43:20.361Z,18.80
2022-07-27T10:44:17.804Z,18.90
2022-07-27T10:44:56.954Z,18.90
2022-07-27T10:46:00.160Z,18.90
2022-07-27T10:46:51.383Z,18.90
2022-07-27T10:47:52.622Z,18.90
2022-07-27T10:48:47.865Z,18.90
2022-07-27T10:49:29.233Z,19.00
2022-07-27T10:50:16.071Z,19.00
2022-07-27T10:50:48.330Z,19.00
2022-07-27T10:51:35.081Z,19.00
2022-07-27T10:52:06.881Z,19.00
2022-07-27T10:52:45.635Z,19.00
2022-07-27T10:53:17.460Z,19.00
2022-07-27T10:54:44.813Z,19.00
2022-07-27T10:55:36.388Z,19.00
2022-07-27T10:56:10.422Z,19.10
2022-07-27T10:56:51.126Z,19.00
2022-07-27T10:57:26.898Z,19.10
2022-07-27T10:58:10.725Z,19.10
2022-07-27T10:58:43.568Z,19.10
2022-07-27T10:59:57.889Z,19.10
2022-07-27T11:00:53.358Z,19.10
2022-07-27T11:01:26.487Z,19.10
2022-07-27T11:01:58.822Z,19.10
2022-07-27T11:02:42.282Z,19.10
2022-07-27T11:03:29.099Z,19.10
2022-07-27T11:04:09.824Z,19.20
2022-07-27T11:04:44.895Z,19.20
2022-07-27T11:06:32.371Z,19.20
2022-07-27T11:07:23.981Z,19.20
2022-07-27T11:08:34.912Z,19.20
2022-07-27T11:09:16.970Z,18.30
2022-07-27T11:10:44.018Z,19.20
2022-07-27T11:11:21.479Z,19.30
2022-07-27T11:11:54.295Z,19.30
2022-07-27T11:12:29.209Z,19.30
2022-07-27T11:13:05.592Z,19.30
2022-07-27T11:13:41.847Z,19.30
2022-07-27T11:14:14.123Z,19.30
2022-07-27T11:14:53.166Z,19.30
2022-07-27T11:15:25.077Z,19.30
2022-07-27T11:16:23.524Z,19.30
2022-07-27T11:17:12.298Z,19.40
2022-07-27T11:18:00.530Z,19.40
2022-07-27T11:18:39.517Z,19.40
2022-07-27T11:19:12.401Z,19.40
2022-07-27T11:19:44.684Z,19.40
2022-07-27T11:20:23.777Z,19.40
2022-07-27T11:21:19.070Z,19.40
2022-07-27T11:21:53.845Z,19.40
2022-07-27T11:22:37.724Z,19.40
2022-07-27T11:24:18.265Z,19.40
2022-07-27T11:24:50.057Z,19.50
2022-07-27T11:25:21.922Z,19.50
2022-07-27T11:26:00.642Z,19.50
2022-07-27T11:26:39.813Z,19.50
2022-07-27T11:27:16.289Z,19.50
2022-07-27T11:27:50.484Z,19.50
2022-07-27T11:28:29.338Z,19.50
2022-07-27T11:29:01.142Z,19.60
2022-07-27T11:29:40.063Z,19.50
2022-07-27T11:30:41.858Z,19.50
2022-07-27T11:31:27.632Z,19.60
2022-07-27T11:32:08.090Z,19.60
2022-07-27T11:32:40.052Z,19.60
2022-07-27T11:33:11.976Z,19.60
2022-07-27T11:33:51.041Z,19.60
2022-07-27T11:34:34.781Z,19.60
2022-07-27T11:35:19.524Z,19.60
2022-07-27T11:35:57.391Z,19.70
2022-07-27T11:36:45.793Z,19.70
2022-07-27T11:37:23.708Z,19.70
2022-07-27T11:38:05.282Z,19.70
2022-07-27T11:38:54.308Z,19.70
2022-07-27T11:39:59.085Z,19.70
2022-07-27T11:41:16.886Z,19.70
2022-07-27T11:42:09.011Z,19.70
2022-07-27T11:42:44.067Z,19.70
2022-07-27T11:43:33.517Z,19.80
2022-07-27T11:44:16.017Z,19.80
2022-07-27T11:44:48.021Z,19.80
2022-07-27T11:45:32.741Z,19.80
2022-07-27T11:46:23.470Z,19.80
2022-07-27T11:47:01.441Z,19.80
2022-07-27T11:47:34.108Z,19.80
2022-07-27T11:48:10.540Z,20.00
2022-07-27T11:49:07.568Z,19.80
2022-07-27T11:49:40.046Z,20.00
2022-07-27T11:50:13.743Z,19.90
2022-07-27T11:50:58.389Z,19.90
2022-07-27T11:51:30.772Z,19.90
2022-07-27T11:52:07.650Z,19.90
2022-07-27T11:52:39.573Z,19.90
2022-07-27T11:53:11.392Z,20.00
2022-07-27T11:53:43.840Z,20.00
2022-07-27T11:54:27.173Z,20.00
2022-07-27T11:54:59.060Z,20.00
2022-07-27T11:55:31.070Z,20.00
2022-07-27T11:56:02.982Z,20.00
2022-07-27T11:56:37.527Z,20.00
2022-07-27T11:57:20.453Z,20.00
2022-07-27T11:57:52.415Z,20.00
2022-07-27T11:58:24.577Z,20.10
2022-07-27T11:59:06.852Z,20.10
2022-07-27T11:59:41.214Z,18.80
2022-07-27T12:00:13.524Z,20.10
2022-07-27T12:00:45.605Z,20.10
2022-07-27T12:01:38.972Z,20.10
2022-07-27T12:02:20.263Z,20.20
2022-07-27T12:02:52.436Z,20.20
2022-07-27T12:03:46.072Z,20.20
2022-07-27T12:04:29.605Z,20.20
2022-07-27T12:05:03.209Z,20.20
2022-07-27T12:05:35.354Z,20.20
2022-07-27T12:06:07.318Z,20.90
2022-07-27T12:06:41.283Z,20.20
2022-07-27T12:07:44.469Z,20.20
2022-07-27T12:08:17.226Z,20.30
2022-07-27T12:08:49.322Z,20.30
2022-07-27T12:09:21.735Z,20.30
2022-07-27T12:10:02.338Z,20.30
2022-07-27T12:10:37.583Z,20.30
2022-07-27T12:11:10.627Z,20.30
2022-07-27T12:11:55.268Z,20.30
2022-07-27T12:12:30.920Z,20.40
2022-07-27T12:13:02.779Z,20.30
2022-07-27T12:13:37.743Z,20.40
2022-07-27T12:14:15.033Z,20.40
2022-07-27T12:14:52.362Z,20.40
2022-07-27T12:16:18.871Z,20.40
2022-07-27T12:16:50.873Z,20.50
2022-07-27T12:17:39.454Z,20.50
2022-07-27T12:18:11.251Z,20.50
2022-07-27T12:18:43.834Z,20.50
2022-07-27T12:19:23.903Z,20.50
2022-07-27T12:20:00.563Z,20.50
2022-07-27T12:20:34.649Z,20.50
2022-07-27T12:21:18.879Z,20.60
2022-07-27T12:21:55.231Z,20.60
2022-07-27T12:22:31.356Z,20.60
2022-07-27T12:23:08.308Z,20.60
2022-07-27T12:23:50.700Z,20.60
2022-07-27T12:24:42.709Z,20.70
2022-07-27T12:25:17.590Z,20.70
2022-07-27T12:25:49.683Z,20.70
2022-07-27T12:26:25.297Z,20.70
2022-07-27T12:27:06.819Z,20.70
2022-07-27T12:27:38.895Z,20.70